Hauptseite
METAR-TAF:

METAR-TAF

Flughäfen :

Flughafen Täbris

Täbris, Iran

Breite: 38-05N, Länge: 046-17E, Höhe: 1367 m

Beobachtung

Neuester Wetterbericht von vor 23 Minuten, um 12:30 UTC
Wind 8 kt aus Ost/Südost
Temperatur 8°C
Luftfeuchtigkeit 29%
Luftdruck 1028 hPa
Sichtweite 10 km oder mehr
Leicht bewölkt in der Höhe von 3000 ft

METAR: OITT 171230Z 12008KT 9999 FEW030 08/M09 Q1027 A3035

Zeit: 16:23 (12:53 UTC)

Prognose

Neuester Wetterbericht von vor 1 Stunde und 23 Minuten, um 11:30 UTC
Gültige Prognose vom 17 um 12 UTC bis 18 um 18 UTC
Wind 8 kt aus Ost
Sichtweite: 8000 m
Leicht bewölkt in der Höhe von 3000 ft

TAF: OITT 171130Z 1712/1818 08008KT 8000 FEW030

Wetterbeobachtungen und Prognosen von mehr als 4000 Flughäfen (METAR und TAF Bericht).

Die verfügbaren Stationen werden durch gelbe und rote Markierungen auf der Karte dargestellt.

Führen Sie die Maus auf sie, um den Namen der Station zu sehen.

Darauf klicken, um die Beobachtung von Wetterbeobachtungen und Prognosen zu sehen.

Um die Karte zu ändern : klicken Sie auf den grünen Tasten mit einem schwarzen Kreuz Zum Vergrößern, auf den grünen Button mit einem Gedankenstrich zu verkleinern, oder auf die grünen Pfeile für benachbarte Karten.


METAR-TAF: